Time;durP1;ratioP1;P1;durP2;ratioP2;P2;SDS_P1;SDS_P2;PMS_P1;PMS_P2;Temp;Humidity;BMP_temperature;BMP_pressure;BME280_temperature;BME280_humidity;BME280_pressure;Samples;Min_cycle;Max_cycle;Signal;HPM_P1;HPM_P2
2023/11/04 00:02:04;;;;;;;6.43;2.90;;;10.00;94.10;;;;;;5039578;28;20209;-66
2023/11/04 00:04:32;;;;;;;4.70;3.20;;;10.00;94.10;;;;;;5043240;28;20216;-65
2023/11/04 00:07:00;;;;;;;6.63;3.13;;;9.90;94.10;;;;;;5035796;28;20207;-66
2023/11/04 00:09:27;;;;;;;4.70;3.07;;;9.90;94.00;;;;;;5039051;28;20209;-65
2023/11/04 00:12:12;;;;;;;5.67;3.30;;;9.90;94.10;;;;;;5042129;28;20203;-66
2023/11/04 00:14:42;;;;;;;7.37;3.10;;;9.90;94.30;;;;;;5039253;28;20214;-65
2023/11/04 00:17:09;;;;;;;6.93;3.30;;;9.90;94.40;;;;;;5041707;28;20657;-65
2023/11/04 00:19:36;;;;;;;5.10;3.00;;;9.90;94.40;;;;;;5042504;28;20294;-65
2023/11/04 00:22:03;;;;;;;5.83;3.07;;;9.90;94.40;;;;;;5042906;28;20685;-66
2023/11/04 00:24:30;;;;;;;5.77;3.30;;;10.00;94.70;;;;;;5040361;28;20254;-66
2023/11/04 00:26:58;;;;;;;6.37;4.17;;;10.00;94.40;;;;;;5043237;28;20708;-65
2023/11/04 00:29:25;;;;;;;4.90;3.10;;;9.90;94.40;;;;;;5041635;28;20236;-66
2023/11/04 00:31:53;;;;;;;8.30;3.40;;;10.00;94.50;;;;;;5041710;28;20210;-66
2023/11/04 00:34:20;;;;;;;4.70;2.77;;;9.90;94.50;;;;;;5036383;28;20553;-66
2023/11/04 00:36:47;;;;;;;5.80;3.70;;;10.00;94.60;;;;;;5039043;28;20537;-66
2023/11/04 00:39:14;;;;;;;8.77;4.60;;;10.00;94.60;;;;;;5043852;28;20212;-65
2023/11/04 00:41:43;;;;;;;8.27;4.97;;;10.00;94.60;;;;;;5043071;28;20708;-66
2023/11/04 00:44:10;;;;;;;9.27;5.00;;;10.00;94.60;;;;;;5038692;28;20205;-65
2023/11/04 00:46:38;;;;;;;9.60;4.93;;;10.00;94.70;;;;;;5038889;28;20223;-65
2023/11/04 00:49:05;;;;;;;7.13;5.60;;;10.00;94.80;;;;;;5041049;28;20201;-66
2023/11/04 00:51:32;;;;;;;10.37;7.03;;;10.00;94.90;;;;;;5037932;28;20231;-66
2023/11/04 00:53:59;;;;;;;7.10;5.43;;;10.00;95.00;;;;;;5039493;28;20770;-65
2023/11/04 00:56:27;;;;;;;9.80;5.77;;;10.00;95.10;;;;;;5039373;28;20211;-66
2023/11/04 00:58:54;;;;;;;6.53;4.73;;;10.10;95.20;;;;;;5037112;28;20855;-66
2023/11/04 01:01:21;;;;;;;7.80;5.23;;;10.10;95.20;;;;;;5044335;28;20211;-65
2023/11/04 01:03:48;;;;;;;10.20;5.87;;;10.10;95.10;;;;;;5044065;28;20209;-65
2023/11/04 01:06:16;;;;;;;9.30;6.60;;;10.10;95.10;;;;;;5037604;28;20218;-66
2023/11/04 01:08:44;;;;;;;9.80;6.90;;;10.00;95.10;;;;;;5041973;28;20203;-66
2023/11/04 01:11:11;;;;;;;9.13;6.97;;;10.00;95.20;;;;;;5038637;28;20206;-65
2023/11/04 01:13:39;;;;;;;7.40;6.47;;;10.00;95.30;;;;;;5041105;28;20258;-66
2023/11/04 01:16:06;;;;;;;8.50;7.47;;;10.00;95.40;;;;;;5044593;28;20511;-65
2023/11/04 01:18:33;;;;;;;13.17;8.70;;;10.00;95.50;;;;;;5037897;28;20196;-65
2023/11/04 01:21:01;;;;;;;8.57;7.23;;;10.00;95.60;;;;;;5038864;28;20227;-66
2023/11/04 01:23:28;;;;;;;9.77;8.30;;;10.10;95.80;;;;;;5034469;28;20264;-66
2023/11/04 01:25:56;;;;;;;12.67;7.90;;;10.10;95.80;;;;;;5043345;28;20216;-65
2023/11/04 01:28:23;;;;;;;9.60;8.47;;;10.10;95.80;;;;;;5036233;28;20202;-65
2023/11/04 01:30:50;;;;;;;9.63;8.63;;;10.10;95.80;;;;;;5042615;28;20218;-66
2023/11/04 01:33:18;;;;;;;10.87;9.13;;;10.10;95.90;;;;;;5044617;28;20203;-66
2023/11/04 01:35:45;;;;;;;17.40;9.43;;;10.10;96.00;;;;;;5041179;28;20203;-65
2023/11/04 01:38:12;;;;;;;10.27;8.90;;;10.10;96.10;;;;;;5040080;28;20205;-65
2023/11/04 01:40:39;;;;;;;11.73;8.43;;;10.10;96.20;;;;;;5036824;28;20285;-65
2023/11/04 01:43:08;;;;;;;9.90;8.83;;;10.10;96.30;;;;;;5038668;28;20247;-65
2023/11/04 01:45:35;;;;;;;10.80;8.60;;;10.10;96.30;;;;;;5041023;28;20205;-65
2023/11/04 01:48:02;;;;;;;12.23;9.40;;;10.00;96.20;;;;;;5046277;28;20205;-66
2023/11/04 01:50:29;;;;;;;9.77;8.77;;;10.00;96.20;;;;;;5040758;28;20206;-65
2023/11/04 01:52:56;;;;;;;9.73;8.63;;;10.00;96.20;;;;;;5042242;28;20616;-66
2023/11/04 01:55:23;;;;;;;15.00;9.30;;;10.00;96.40;;;;;;5040469;28;20280;-65
2023/11/04 01:57:50;;;;;;;11.90;9.70;;;10.00;96.50;;;;;;5043585;28;20203;-64
2023/11/04 02:00:18;;;;;;;10.90;9.77;;;10.00;96.60;;;;;;5047392;28;20228;-66
2023/11/04 02:02:45;;;;;;;11.67;9.67;;;10.00;96.70;;;;;;5038938;28;20203;-66
2023/11/04 02:05:12;;;;;;;10.60;9.50;;;10.00;96.80;;;;;;5041036;28;20205;-65
2023/11/04 02:07:40;;;;;;;11.73;9.80;;;10.00;96.80;;;;;;5039100;28;20194;-66
2023/11/04 02:10:07;;;;;;;11.77;10.20;;;10.00;96.90;;;;;;5036766;28;20220;-65
2023/11/04 02:12:34;;;;;;;10.97;9.47;;;10.00;96.90;;;;;;5043620;28;20215;-66
2023/11/04 02:15:01;;;;;;;11.57;9.53;;;10.00;96.90;;;;;;5040016;28;20205;-66
2023/11/04 02:17:28;;;;;;;11.30;10.10;;;10.00;97.00;;;;;;5044868;28;20289;-65
2023/11/04 02:20:00;;;;;;;10.40;9.33;;;10.00;97.00;;;;;;5049028;28;20222;-66
2023/11/04 02:22:27;;;;;;;10.77;9.67;;;10.00;96.90;;;;;;5045134;28;20216;-66
2023/11/04 02:24:55;;;;;;;10.50;9.40;;;9.90;96.90;;;;;;5043716;28;20249;-66
2023/11/04 02:27:22;;;;;;;10.30;8.87;;;9.90;97.00;;;;;;5041422;28;20202;-66
2023/11/04 02:29:50;;;;;;;9.77;8.87;;;9.90;97.20;;;;;;5040575;28;20229;-65
2023/11/04 02:32:17;;;;;;;10.20;8.00;;;10.00;97.20;;;;;;5046214;28;20213;-65
2023/11/04 02:34:44;;;;;;;9.37;8.47;;;10.00;97.10;;;;;;5044489;28;20317;-66
2023/11/04 02:37:11;;;;;;;9.93;8.43;;;9.90;97.30;;;;;;5043735;28;20197;-65
2023/11/04 02:39:38;;;;;;;9.60;8.30;;;9.90;97.10;;;;;;5043926;28;20715;-66
2023/11/04 02:42:05;;;;;;;10.50;9.50;;;9.90;97.10;;;;;;5040559;28;20212;-65
2023/11/04 02:44:33;;;;;;;10.47;9.07;;;9.90;97.10;;;;;;5047268;28;20213;-66
2023/11/04 02:47:00;;;;;;;12.40;9.83;;;9.80;97.10;;;;;;5041676;28;20208;-66
2023/11/04 02:49:26;;;;;;;9.90;9.00;;;9.80;97.10;;;;;;5043229;28;20269;-65
2023/11/04 02:51:53;;;;;;;10.80;9.80;;;9.80;97.20;;;;;;5042779;28;20201;-66
2023/11/04 02:54:34;;;;;;;10.73;9.30;;;9.80;97.10;;;;;;5040797;28;20216;-65
2023/11/04 02:57:03;;;;;;;10.37;9.30;;;9.80;97.10;;;;;;5049707;28;20208;-65
2023/11/04 02:59:30;;;;;;;10.80;9.10;;;9.70;97.10;;;;;;5040236;28;20192;-65
2023/11/04 03:01:57;;;;;;;11.03;9.50;;;9.70;97.20;;;;;;5040490;28;20290;-66
2023/11/04 03:04:25;;;;;;;10.97;8.80;;;9.70;97.20;;;;;;5042078;28;20288;-66
2023/11/04 03:06:53;;;;;;;13.30;9.03;;;9.70;97.20;;;;;;5039955;28;20205;-65
2023/11/04 03:09:20;;;;;;;8.97;8.13;;;9.70;97.30;;;;;;5040829;28;20266;-66
2023/11/04 03:11:47;;;;;;;11.83;9.07;;;9.70;97.20;;;;;;5044992;28;20225;-66
2023/11/04 03:14:14;;;;;;;13.07;9.47;;;9.70;97.20;;;;;;5040071;28;20214;-66
2023/11/04 03:16:42;;;;;;;10.73;9.63;;;9.70;97.20;;;;;;5047014;28;20279;-66
2023/11/04 03:19:09;;;;;;;11.23;10.03;;;9.70;97.10;;;;;;5044056;28;20251;-65
2023/11/04 03:21:36;;;;;;;15.50;10.23;;;9.60;97.10;;;;;;5040568;28;20229;-65
2023/11/04 03:24:03;;;;;;;12.87;10.33;;;9.60;97.10;;;;;;5041926;28;20715;-66
2023/11/04 03:26:30;;;;;;;11.10;10.00;;;9.60;97.20;;;;;;5039718;28;20193;-66
2023/11/04 03:28:57;;;;;;;11.20;9.80;;;9.60;97.20;;;;;;5047317;28;20655;-66
2023/11/04 03:31:24;;;;;;;11.70;10.50;;;9.50;97.10;;;;;;5045270;28;20236;-65
2023/11/04 03:33:51;;;;;;;10.40;9.23;;;9.50;97.20;;;;;;5042470;28;20300;-65
2023/11/04 03:36:19;;;;;;;9.70;8.70;;;9.50;97.20;;;;;;5039302;28;20645;-66
2023/11/04 03:38:46;;;;;;;10.83;8.37;;;9.40;97.30;;;;;;5041454;28;20214;-66
2023/11/04 03:41:13;;;;;;;12.63;9.10;;;9.40;97.30;;;;;;5042787;28;20225;-65
2023/11/04 03:43:40;;;;;;;7.20;6.53;;;9.40;97.30;;;;;;5037549;28;20235;-66
2023/11/04 03:46:07;;;;;;;9.10;8.17;;;9.30;97.20;;;;;;5044446;28;20224;-66
2023/11/04 03:48:34;;;;;;;9.30;8.33;;;9.20;97.20;;;;;;5041919;28;20199;-65
2023/11/04 03:51:01;;;;;;;10.00;9.00;;;9.20;97.20;;;;;;5040490;28;20246;-66
2023/11/04 03:53:28;;;;;;;11.57;8.73;;;9.20;97.20;;;;;;5043135;28;20206;-66
2023/11/04 03:55:56;;;;;;;9.20;8.13;;;9.10;97.20;;;;;;5036124;28;20211;-66
2023/11/04 03:58:23;;;;;;;8.87;7.90;;;9.10;97.20;;;;;;5042328;28;20200;-66
2023/11/04 04:00:50;;;;;;;9.80;8.00;;;9.10;97.10;;;;;;5042493;28;20232;-66
2023/11/04 04:03:17;;;;;;;8.93;8.13;;;9.00;97.10;;;;;;5041544;28;20588;-66
2023/11/04 04:05:44;;;;;;;8.47;7.53;;;9.00;97.10;;;;;;5037390;28;20255;-65
2023/11/04 04:08:11;;;;;;;9.23;8.30;;;8.90;97.10;;;;;;5045325;28;20255;-65
2023/11/04 04:10:38;;;;;;;9.83;8.87;;;8.90;97.20;;;;;;5042427;28;20284;-66
2023/11/04 04:13:05;;;;;;;10.00;9.00;;;8.90;97.20;;;;;;5042709;28;20201;-65
2023/11/04 04:15:32;;;;;;;11.50;8.83;;;8.90;97.30;;;;;;5041917;28;20202;-66
2023/11/04 04:17:59;;;;;;;10.67;9.10;;;8.90;97.30;;;;;;5044808;28;20297;-66
2023/11/04 04:20:27;;;;;;;8.60;7.77;;;8.90;97.30;;;;;;5039421;28;20323;-65
2023/11/04 04:22:54;;;;;;;10.87;9.00;;;8.90;97.40;;;;;;5035889;28;20275;-66
2023/11/04 04:25:21;;;;;;;10.33;8.43;;;8.90;97.50;;;;;;5037496;28;20735;-66
2023/11/04 04:27:48;;;;;;;8.90;8.00;;;8.90;97.50;;;;;;5043416;28;20206;-65
2023/11/04 04:30:16;;;;;;;10.57;9.47;;;8.90;97.50;;;;;;5041926;28;20195;-66
2023/11/04 04:32:43;;;;;;;10.63;8.87;;;8.90;97.60;;;;;;5041966;28;20228;-66
2023/11/04 04:35:11;;;;;;;9.93;8.90;;;8.90;97.60;;;;;;5040748;28;20642;-66
2023/11/04 04:37:38;;;;;;;9.47;8.40;;;9.00;97.70;;;;;;5041821;28;20259;-65
2023/11/04 04:40:06;;;;;;;13.20;9.40;;;9.00;97.60;;;;;;5041965;28;20193;-67
2023/11/04 04:42:33;;;;;;;10.53;8.93;;;9.00;97.60;;;;;;5043153;28;20202;-65
2023/11/04 04:45:00;;;;;;;9.97;8.97;;;9.00;97.60;;;;;;5044005;28;20276;-66
2023/11/04 04:47:27;;;;;;;12.70;9.93;;;9.00;97.60;;;;;;5040586;28;20205;-65
2023/11/04 04:49:54;;;;;;;13.20;9.27;;;9.00;97.70;;;;;;5043451;28;20264;-66
2023/11/04 04:52:21;;;;;;;14.37;9.20;;;9.00;97.60;;;;;;5039081;28;20325;-65
2023/11/04 04:54:48;;;;;;;14.43;9.20;;;9.00;97.70;;;;;;5043092;28;20198;-65
2023/11/04 04:57:15;;;;;;;9.67;8.67;;;8.90;97.70;;;;;;5041935;28;20209;-66
2023/11/04 04:59:42;;;;;;;12.20;9.20;;;8.90;97.70;;;;;;5036440;28;20628;-66
2023/11/04 05:02:08;;;;;;;9.27;8.10;;;9.00;97.80;;;;;;5040469;28;20225;-66
2023/11/04 05:04:35;;;;;;;9.90;8.17;;;8.90;97.70;;;;;;5039574;28;20205;-66
2023/11/04 05:07:03;;;;;;;9.90;8.47;;;8.90;97.60;;;;;;5038138;28;20212;-66
2023/11/04 05:09:30;;;;;;;9.87;8.03;;;8.90;97.60;;;;;;5044282;28;20299;-66
2023/11/04 05:11:57;;;;;;;9.37;8.47;;;8.90;97.60;;;;;;5038033;28;20260;-65
2023/11/04 05:14:24;;;;;;;11.63;8.33;;;8.90;97.60;;;;;;5039696;28;20675;-66
2023/11/04 05:16:51;;;;;;;14.40;8.53;;;8.90;97.60;;;;;;5044475;28;20200;-65
2023/11/04 05:19:19;;;;;;;9.73;8.03;;;8.80;97.60;;;;;;5036868;28;20204;-66
2023/11/04 05:21:47;;;;;;;9.80;8.20;;;8.80;97.60;;;;;;5037917;28;20209;-66
2023/11/04 05:24:14;;;;;;;11.87;8.23;;;8.80;97.60;;;;;;5042942;28;20243;-66
2023/11/04 05:26:41;;;;;;;11.03;7.63;;;8.80;97.50;;;;;;5036354;28;20591;-66
2023/11/04 05:29:11;;;;;;;8.57;7.30;;;8.80;97.50;;;;;;5036698;28;20216;-66
2023/11/04 05:31:38;;;;;;;10.97;8.03;;;8.70;97.50;;;;;;5038701;28;20201;-65
2023/11/04 05:34:06;;;;;;;10.73;8.53;;;8.70;97.80;;;;;;5040119;28;20291;-66
2023/11/04 05:36:33;;;;;;;9.43;8.40;;;8.70;97.60;;;;;;5040563;28;20292;-65
2023/11/04 05:39:00;;;;;;;12.10;7.70;;;8.70;97.70;;;;;;5046366;28;20621;-65
2023/11/04 05:41:27;;;;;;;10.13;8.07;;;8.70;97.70;;;;;;5042570;28;20224;-66
2023/11/04 05:43:54;;;;;;;11.57;8.00;;;8.70;97.80;;;;;;5040603;28;20512;-65
2023/11/04 05:46:21;;;;;;;8.23;7.43;;;8.60;97.70;;;;;;5040543;28;20655;-65
2023/11/04 05:48:48;;;;;;;8.37;6.77;;;8.60;97.70;;;;;;5043635;28;20209;-65
2023/11/04 05:51:25;;;;;;;10.87;7.27;;;8.60;97.70;;;;;;5039159;28;20204;-65
2023/11/04 05:53:52;;;;;;;8.17;6.53;;;8.60;97.70;;;;;;5047439;28;20260;-65
2023/11/04 05:56:20;;;;;;;9.87;7.00;;;8.60;97.70;;;;;;5041347;28;20654;-65
2023/11/04 05:58:47;;;;;;;8.70;7.53;;;8.60;97.60;;;;;;5042765;28;20223;-66
2023/11/04 06:01:15;;;;;;;10.80;8.03;;;8.60;97.50;;;;;;5045134;28;20310;-65
2023/11/04 06:03:42;;;;;;;9.07;7.70;;;8.60;97.50;;;;;;5046654;28;20201;-65
2023/11/04 06:06:09;;;;;;;11.67;7.93;;;8.60;97.50;;;;;;5042576;28;20213;-66
2023/11/04 06:08:36;;;;;;;11.53;7.87;;;8.60;97.50;;;;;;5039183;28;20291;-66
2023/11/04 06:11:03;;;;;;;9.13;7.83;;;8.60;97.50;;;;;;5040061;28;20267;-65
2023/11/04 06:13:30;;;;;;;10.23;8.20;;;8.60;97.50;;;;;;5042604;28;20255;-65
2023/11/04 06:15:57;;;;;;;10.77;9.07;;;8.60;97.50;;;;;;5041317;28;20207;-65
2023/11/04 06:18:24;;;;;;;11.37;8.07;;;8.50;97.50;;;;;;5042626;28;20294;-65
2023/11/04 06:20:51;;;;;;;10.83;8.47;;;8.50;97.50;;;;;;5047429;28;20218;-65
2023/11/04 06:23:18;;;;;;;13.10;8.33;;;8.50;97.50;;;;;;5045737;28;20199;-65
2023/11/04 06:25:45;;;;;;;11.67;7.47;;;8.50;97.50;;;;;;5041887;28;20557;-66
2023/11/04 06:28:12;;;;;;;9.70;8.03;;;8.50;97.50;;;;;;5044601;28;20513;-66
2023/11/04 06:30:39;;;;;;;9.60;7.73;;;8.40;97.50;;;;;;5041912;28;20205;-65
2023/11/04 06:33:06;;;;;;;13.07;9.30;;;8.40;97.50;;;;;;5044840;28;20197;-66
2023/11/04 06:35:33;;;;;;;10.43;7.87;;;8.50;97.60;;;;;;5040217;28;20620;-65
2023/11/04 06:38:01;;;;;;;12.57;8.60;;;8.50;97.70;;;;;;5040613;28;20251;-65
2023/11/04 06:40:29;;;;;;;14.47;8.90;;;8.60;97.70;;;;;;5044015;28;20605;-66
2023/11/04 06:42:56;;;;;;;11.20;7.93;;;8.60;97.60;;;;;;5040462;28;20205;-66
2023/11/04 06:45:22;;;;;;;12.33;9.33;;;8.60;97.60;;;;;;5044049;28;20677;-65
2023/11/04 06:52:03;;;;;;;11.27;8.10;;;8.80;97.60;;;;;;5048180;28;20219;-65
2023/11/04 06:54:30;;;;;;;10.73;7.80;;;8.90;97.60;;;;;;5041053;28;20224;-66
2023/11/04 06:56:57;;;;;;;10.60;9.00;;;9.00;98.00;;;;;;5040742;28;20635;-65
2023/11/04 06:59:24;;;;;;;9.23;7.77;;;9.10;97.70;;;;;;5043046;28;20244;-65
2023/11/04 07:01:52;;;;;;;11.23;8.50;;;9.20;97.60;;;;;;5039069;28;20223;-65
2023/11/04 07:04:19;;;;;;;10.10;7.90;;;9.30;97.50;;;;;;5043693;28;20219;-65
2023/11/04 07:06:50;;;;;;;10.90;8.43;;;9.50;97.30;;;;;;5039385;28;20203;-66
2023/11/04 07:09:18;;;;;;;12.43;9.13;;;9.70;97.10;;;;;;5044449;28;20794;-65
2023/11/04 07:11:45;;;;;;;9.60;7.80;;;10.00;96.80;;;;;;5041357;28;20268;-65
2023/11/04 07:14:14;;;;;;;12.77;9.07;;;10.30;96.30;;;;;;5044285;28;20646;-66
2023/11/04 07:16:41;;;;;;;8.60;7.73;;;10.40;96.00;;;;;;5048207;28;20199;-65
2023/11/04 07:19:09;;;;;;;14.90;9.70;;;10.40;95.90;;;;;;5040408;28;20210;-65
2023/11/04 07:21:37;;;;;;;10.07;8.30;;;10.40;96.10;;;;;;5047245;28;20220;-66
2023/11/04 07:24:05;;;;;;;12.97;9.13;;;10.50;96.20;;;;;;5047005;28;20257;-65
2023/11/04 07:26:32;;;;;;;9.47;8.50;;;10.70;96.10;;;;;;5040690;28;20336;-65
2023/11/04 07:28:59;;;;;;;9.83;8.87;;;11.00;95.90;;;;;;5040900;28;20202;-65
2023/11/04 07:31:27;;;;;;;11.73;9.30;;;11.10;95.50;;;;;;5040712;28;20544;-65
2023/11/04 07:33:54;;;;;;;16.17;9.93;;;11.20;95.20;;;;;;5046356;28;20240;-65
2023/11/04 07:36:25;;;;;;;10.30;9.13;;;11.40;95.10;;;;;;5041118;28;20210;-64
2023/11/04 07:38:53;;;;;;;11.57;9.43;;;11.40;94.90;;;;;;5041498;28;20203;-65
2023/11/04 07:41:20;;;;;;;14.97;10.07;;;11.40;94.80;;;;;;5043118;28;20309;-66
2023/11/04 07:43:48;;;;;;;12.53;9.03;;;11.30;94.90;;;;;;5036104;28;20276;-65
2023/11/04 07:46:15;;;;;;;12.37;10.50;;;11.30;95.00;;;;;;5040563;28;20202;-65
2023/11/04 07:48:42;;;;;;;13.60;9.83;;;11.30;95.20;;;;;;5041108;28;20236;-65
2023/11/04 07:51:10;;;;;;;11.23;10.03;;;11.30;95.40;;;;;;5042004;28;20572;-65
2023/11/04 07:53:38;;;;;;;11.13;10.03;;;11.30;95.50;;;;;;5044413;28;20199;-65
2023/11/04 07:56:06;;;;;;;10.63;9.53;;;11.40;95.60;;;;;;5042510;28;20672;-65
2023/11/04 07:58:33;;;;;;;11.03;9.57;;;11.40;95.60;;;;;;5039698;28;20191;-64
2023/11/04 08:01:01;;;;;;;11.20;9.83;;;11.40;95.60;;;;;;5047742;28;20205;-65
2023/11/04 08:03:28;;;;;;;11.87;10.33;;;11.50;95.60;;;;;;5040089;28;20288;-65
2023/11/04 08:05:56;;;;;;;11.30;10.10;;;11.50;95.60;;;;;;5041872;28;20221;-66
2023/11/04 08:08:23;;;;;;;11.87;10.43;;;11.60;95.60;;;;;;5035662;28;20215;-65
2023/11/04 08:10:50;;;;;;;12.37;10.03;;;11.60;95.60;;;;;;5037895;28;20210;-64
2023/11/04 08:13:19;;;;;;;10.50;9.40;;;11.70;95.60;;;;;;5042193;28;20189;-64
2023/11/04 08:15:46;;;;;;;10.83;9.73;;;11.80;95.60;;;;;;5040345;28;20208;-64
2023/11/04 08:18:13;;;;;;;10.50;9.40;;;11.90;95.70;;;;;;5040119;28;20215;-65
2023/11/04 08:20:42;;;;;;;11.60;9.67;;;12.10;95.60;;;;;;5038952;28;20527;-65
2023/11/04 08:23:09;;;;;;;12.03;9.67;;;12.20;95.30;;;;;;5036903;28;20552;-65
2023/11/04 08:25:36;;;;;;;12.90;9.47;;;12.40;95.10;;;;;;5040368;28;20259;-64
2023/11/04 08:28:03;;;;;;;10.90;9.47;;;12.50;95.20;;;;;;5041951;28;20193;-65
2023/11/04 08:30:30;;;;;;;12.27;9.63;;;12.70;94.90;;;;;;5043917;28;20819;-64
2023/11/04 08:32:58;;;;;;;11.87;9.23;;;12.80;94.80;;;;;;5041537;28;20557;-64
2023/11/04 08:35:25;;;;;;;10.47;9.37;;;12.90;94.60;;;;;;5043974;28;20230;-65
2023/11/04 08:37:52;;;;;;;9.97;9.00;;;13.10;94.30;;;;;;5046118;28;20653;-64
2023/11/04 08:40:19;;;;;;;10.93;8.63;;;13.20;94.00;;;;;;5036836;28;20212;-65
2023/11/04 08:42:46;;;;;;;10.37;9.37;;;13.30;93.90;;;;;;5035418;28;20541;-65
2023/11/04 08:45:14;;;;;;;11.20;10.07;;;13.40;93.60;;;;;;5040967;28;20199;-64
2023/11/04 08:47:41;;;;;;;12.77;11.57;;;13.50;93.60;;;;;;5040116;28;20224;-64
2023/11/04 08:50:09;;;;;;;12.37;11.17;;;13.50;93.30;;;;;;5040433;28;20194;-64
2023/11/04 08:52:38;;;;;;;15.00;13.40;;;13.60;93.30;;;;;;5042788;28;20636;-64
2023/11/04 08:55:06;;;;;;;16.27;14.20;;;13.60;93.30;;;;;;5044021;28;20221;-65
2023/11/04 08:57:33;;;;;;;9.67;8.77;;;13.60;93.40;;;;;;5042422;28;20209;-65
2023/11/04 09:00:00;;;;;;;13.57;11.50;;;13.70;93.40;;;;;;5034307;28;20222;-65
2023/11/04 09:02:28;;;;;;;14.27;10.80;;;13.80;93.30;;;;;;5038201;28;20688;-65
2023/11/04 09:04:55;;;;;;;12.23;10.97;;;13.90;93.20;;;;;;5042465;28;20298;-64
2023/11/04 09:07:33;;;;;;;11.37;10.00;;;14.00;93.10;;;;;;5038036;28;20201;-64
2023/11/04 09:10:00;;;;;;;10.23;8.83;;;14.10;92.90;;;;;;5040752;28;20209;-65
2023/11/04 09:12:27;;;;;;;11.33;9.07;;;14.10;92.50;;;;;;5041514;28;20216;-64
2023/11/04 09:14:54;;;;;;;9.67;8.60;;;14.20;92.30;;;;;;5041527;28;20225;-65
2023/11/04 09:17:22;;;;;;;9.23;7.57;;;14.30;92.20;;;;;;5039447;28;20277;-65
2023/11/04 09:19:49;;;;;;;11.00;8.73;;;14.30;92.00;;;;;;5034531;28;20209;-65
2023/11/04 09:22:16;;;;;;;10.80;7.97;;;14.40;91.90;;;;;;5039373;28;20768;-64
2023/11/04 09:24:43;;;;;;;7.67;6.87;;;14.50;91.40;;;;;;5040094;28;20229;-65
2023/11/04 09:27:10;;;;;;;8.43;6.57;;;14.50;91.20;;;;;;5038235;28;20210;-65
2023/11/04 09:29:37;;;;;;;9.03;7.97;;;14.50;91.10;;;;;;5038937;28;20198;-65
2023/11/04 09:32:05;;;;;;;8.43;7.20;;;14.50;91.10;;;;;;5043827;28;20630;-64
2023/11/04 09:34:33;;;;;;;8.60;7.10;;;14.60;91.00;;;;;;5043560;28;20212;-65
2023/11/04 09:37:00;;;;;;;8.60;6.90;;;14.70;90.80;;;;;;5037436;28;20206;-65
2023/11/04 09:39:27;;;;;;;9.57;6.60;;;14.70;90.60;;;;;;5035013;28;20213;-65
2023/11/04 09:41:55;;;;;;;6.30;5.70;;;14.70;90.70;;;;;;5037327;28;20240;-64
2023/11/04 09:44:21;;;;;;;7.13;5.87;;;14.80;90.90;;;;;;5036246;28;20571;-64
2023/11/04 09:46:49;;;;;;;6.43;5.83;;;14.90;90.70;;;;;;5039090;28;20676;-64
2023/11/04 09:49:16;;;;;;;5.87;5.20;;;14.90;90.80;;;;;;5041984;28;20214;-65
2023/11/04 09:51:43;;;;;;;5.70;5.20;;;15.00;90.60;;;;;;5039260;28;20206;-64
2023/11/04 09:54:11;;;;;;;6.40;4.77;;;15.00;90.50;;;;;;5037069;28;20265;-65
2023/11/04 09:56:38;;;;;;;6.23;4.70;;;15.10;90.20;;;;;;5033532;28;20199;-64
2023/11/04 09:59:07;;;;;;;4.43;4.03;;;15.20;89.60;;;;;;5037078;28;20549;-64
2023/11/04 10:01:34;;;;;;;5.30;3.80;;;15.20;90.00;;;;;;5041100;28;20277;-64
2023/11/04 10:04:02;;;;;;;4.80;4.17;;;15.30;90.10;;;;;;5039144;28;20203;-64
2023/11/04 10:06:29;;;;;;;4.97;4.47;;;15.40;90.00;;;;;;5036859;28;20570;-65
2023/11/04 10:08:56;;;;;;;5.00;4.50;;;15.50;90.00;;;;;;5036626;28;20687;-65
2023/11/04 10:11:23;;;;;;;4.33;3.93;;;15.50;90.00;;;;;;5038395;28;20199;-64
2023/11/04 10:13:54;;;;;;;5.90;5.03;;;15.60;89.10;;;;;;5043485;28;20260;-64
2023/11/04 10:16:22;;;;;;;5.30;4.33;;;15.70;88.90;;;;;;5036935;28;20210;-64
2023/11/04 10:18:49;;;;;;;7.70;5.40;;;15.80;89.00;;;;;;5037079;28;20268;-64
2023/11/04 10:21:21;;;;;;;6.30;4.20;;;15.80;89.00;;;;;;5038736;28;20203;-64
2023/11/04 10:23:49;;;;;;;5.40;4.90;;;15.90;88.70;;;;;;5039995;28;20531;-64
2023/11/04 10:26:16;;;;;;;6.00;4.70;;;16.00;88.60;;;;;;5036282;28;20201;-64
2023/11/04 10:28:43;;;;;;;7.33;4.80;;;16.10;88.50;;;;;;5039453;28;20192;-64
2023/11/04 10:31:14;;;;;;;8.07;5.33;;;16.10;88.10;;;;;;5042371;28;20289;-65
2023/11/04 10:33:43;;;;;;;7.50;4.97;;;16.10;88.10;;;;;;5037651;28;20283;-65
2023/11/04 10:36:11;;;;;;;8.23;4.90;;;16.20;88.40;;;;;;5036111;28;20662;-65
2023/11/04 10:38:42;;;;;;;5.70;4.93;;;16.30;88.30;;;;;;5042914;28;20234;-65
2023/11/04 10:41:13;;;;;;;5.53;4.57;;;16.40;87.00;;;;;;5043670;28;20198;-65
2023/11/04 10:43:54;;;;;;;6.33;4.93;;;16.40;87.20;;;;;;5040000;28;20214;-64
2023/11/04 10:46:44;;;;;;;5.90;5.03;;;16.40;87.40;;;;;;5046844;28;20299;-65
2023/11/04 10:49:22;;;;;;;5.60;5.10;;;16.50;87.50;;;;;;5051051;28;20195;-64
2023/11/04 10:51:58;;;;;;;5.23;4.67;;;16.50;86.20;;;;;;5042747;28;20206;-64
2023/11/04 10:54:40;;;;;;;5.97;4.70;;;16.40;86.50;;;;;;5044832;28;20197;-65
2023/11/04 10:57:23;;;;;;;5.20;4.70;;;16.40;87.00;;;;;;5041430;28;20858;-63
2023/11/04 10:59:56;;;;;;;6.70;5.37;;;16.40;87.00;;;;;;5041110;28;20187;-64
2023/11/04 11:02:25;;;;;;;4.70;4.20;;;16.30;87.20;;;;;;5039672;28;20235;-64
2023/11/04 11:04:53;;;;;;;6.77;3.90;;;16.20;87.60;;;;;;5047937;28;20214;-66
2023/11/04 11:07:20;;;;;;;6.23;3.93;;;16.20;87.80;;;;;;5029742;28;20213;-65
2023/11/04 11:09:48;;;;;;;4.43;4.03;;;16.30;87.20;;;;;;5050654;28;20199;-65
2023/11/04 11:12:21;;;;;;;4.93;4.07;;;16.50;86.10;;;;;;5044509;28;20202;-63
2023/11/04 11:14:49;;;;;;;5.37;4.03;;;16.50;85.90;;;;;;5041797;28;20273;-65
2023/11/04 11:17:16;;;;;;;5.50;4.33;;;16.60;85.80;;;;;;5039901;28;20203;-64
2023/11/04 11:19:52;;;;;;;6.00;4.60;;;16.60;85.50;;;;;;5041008;28;20194;-64
2023/11/04 11:22:27;;;;;;;4.40;4.00;;;16.70;86.10;;;;;;5040895;28;20229;-65
2023/11/04 11:24:57;;;;;;;4.27;3.87;;;16.90;85.90;;;;;;5038997;28;20888;-65
2023/11/04 11:27:25;;;;;;;4.53;3.60;;;17.00;84.80;;;;;;5041923;28;20200;-64
2023/11/04 11:29:56;;;;;;;6.30;3.53;;;17.10;83.80;;;;;;5046100;28;20275;-64
2023/11/04 11:32:34;;;;;;;7.07;4.33;;;17.20;83.70;;;;;;5039318;28;20229;-65
2023/11/04 11:35:04;;;;;;;6.53;4.07;;;17.30;83.30;;;;;;5039624;28;20515;-64
2023/11/04 11:37:31;;;;;;;9.87;3.83;;;17.30;83.10;;;;;;5041267;28;20626;-64
2023/11/04 11:39:58;;;;;;;6.27;3.80;;;17.40;81.80;;;;;;5040010;28;20211;-63
2023/11/04 11:42:26;;;;;;;5.00;4.00;;;17.30;81.70;;;;;;5039272;28;20207;-64
2023/11/04 11:44:55;;;;;;;4.00;3.40;;;17.40;82.20;;;;;;5043283;28;20622;-64
2023/11/04 11:47:22;;;;;;;4.97;3.97;;;17.50;82.00;;;;;;5039770;28;20225;-65
2023/11/04 11:49:49;;;;;;;4.80;3.47;;;17.60;81.20;;;;;;5039206;28;20273;-65
2023/11/04 11:52:16;;;;;;;7.13;3.90;;;17.60;81.10;;;;;;5038081;28;20249;-64
2023/11/04 11:54:44;;;;;;;624.93;299.30;;;17.60;81.00;;;;;;5039190;28;20278;-64
2023/11/04 11:57:11;;;;;;;6.90;5.33;;;17.50;81.00;;;;;;5043238;28;20203;-64
2023/11/04 11:59:39;;;;;;;8.27;4.63;;;17.50;81.50;;;;;;5044508;28;20795;-65
2023/11/04 12:02:07;;;;;;;7.47;3.90;;;17.40;82.10;;;;;;5044226;28;20196;-65
2023/11/04 12:04:35;;;;;;;16.47;5.80;;;17.40;82.60;;;;;;5044603;28;20287;-64
2023/11/04 12:07:03;;;;;;;6.00;3.83;;;17.30;82.50;;;;;;5043136;28;20238;-64
2023/11/04 12:09:30;;;;;;;4.77;3.40;;;17.30;82.90;;;;;;5040958;28;20250;-65
2023/11/04 12:11:57;;;;;;;5.77;3.27;;;17.30;83.00;;;;;;5037965;28;20227;-64
2023/11/04 12:14:24;;;;;;;4.63;3.83;;;17.30;83.00;;;;;;5039537;28;20206;-65
2023/11/04 12:16:53;;;;;;;6.60;4.00;;;17.40;83.10;;;;;;5041177;28;20194;-65
2023/11/04 12:19:21;;;;;;;6.10;4.00;;;17.40;83.10;;;;;;5038828;28;20230;-64
2023/11/04 12:21:49;;;;;;;5.00;2.87;;;17.50;82.20;;;;;;5041018;28;20205;-65
2023/11/04 12:24:18;;;;;;;4.37;2.90;;;17.60;82.10;;;;;;5042544;28;20247;-65
2023/11/04 12:26:45;;;;;;;7.43;3.27;;;17.70;81.60;;;;;;5041742;28;20197;-65
2023/11/04 12:29:12;;;;;;;4.33;3.40;;;17.80;80.40;;;;;;5039406;28;20223;-64
2023/11/04 12:31:40;;;;;;;7.40;5.03;;;17.80;80.80;;;;;;5037636;28;20278;-65
2023/11/04 12:34:08;;;;;;;8.30;4.80;;;17.80;80.90;;;;;;5040976;28;20289;-65
2023/11/04 12:36:36;;;;;;;4.53;2.70;;;17.80;80.30;;;;;;5043958;28;20208;-65
2023/11/04 12:39:03;;;;;;;4.83;3.00;;;17.80;80.80;;;;;;5038999;28;20205;-64
2023/11/04 12:41:30;;;;;;;3.87;3.40;;;17.90;80.90;;;;;;5042697;28;20205;-65
2023/11/04 12:44:01;;;;;;;6.83;4.10;;;17.90;80.80;;;;;;5042860;28;20731;-65
2023/11/04 12:46:29;;;;;;;4.63;3.73;;;17.90;80.90;;;;;;5045631;28;20221;-64
2023/11/04 12:48:57;;;;;;;7.70;3.37;;;17.90;80.30;;;;;;5041616;28;20206;-64
2023/11/04 12:51:24;;;;;;;6.13;3.03;;;17.90;80.50;;;;;;5035645;28;20700;-65
2023/11/04 12:53:52;;;;;;;5.73;2.83;;;17.80;80.40;;;;;;5039919;28;20295;-65